Time;durP1;ratioP1;P1;durP2;ratioP2;P2;SDS_P1;SDS_P2;PMS_P1;PMS_P2;Temp;Humidity;BMP_temperature;BMP_pressure;BME280_temperature;BME280_humidity;BME280_pressure;Samples;Min_cycle;Max_cycle;Signal;HPM_P1;HPM_P2
2023/06/10 00:00:06;;;;;;;6.80;3.00;;;23.90;96.70;;;;;;4943557;28;20070;-70
2023/06/10 00:02:40;;;;;;;7.03;3.60;;;23.80;96.70;;;;;;4962832;28;20078;-70
2023/06/10 00:05:10;;;;;;;4.72;3.55;;;23.80;96.70;;;;;;4945049;28;20102;-70
2023/06/10 00:07:38;;;;;;;6.15;3.20;;;23.60;96.70;;;;;;4943345;28;20051;-71
2023/06/10 00:10:10;;;;;;;6.72;2.92;;;23.60;96.70;;;;;;4942257;28;20467;-71
2023/06/10 00:12:38;;;;;;;6.63;2.92;;;23.30;96.70;;;;;;4943746;28;20043;-71
2023/06/10 00:15:08;;;;;;;5.93;3.17;;;23.40;96.70;;;;;;4944991;28;20043;-71
2023/06/10 00:17:38;;;;;;;5.15;3.10;;;23.50;96.70;;;;;;4943744;28;20061;-70
2023/06/10 00:20:11;;;;;;;9.30;3.58;;;23.60;96.70;;;;;;4975443;28;20525;-71
2023/06/10 00:22:41;;;;;;;6.90;3.30;;;23.60;96.70;;;;;;4959619;28;20047;-70
2023/06/10 00:25:11;;;;;;;5.15;3.28;;;23.50;96.70;;;;;;4976026;28;20051;-71
2023/06/10 00:27:39;;;;;;;5.30;3.13;;;23.40;96.70;;;;;;4973178;28;20039;-70
2023/06/10 00:30:08;;;;;;;5.93;3.17;;;23.50;96.70;;;;;;4954328;28;20075;-70
2023/06/10 00:32:39;;;;;;;6.80;3.15;;;23.50;96.70;;;;;;4952858;28;20051;-71
2023/06/10 00:35:08;;;;;;;5.13;2.80;;;23.60;96.70;;;;;;4953472;28;20097;-70
2023/06/10 00:37:36;;;;;;;5.90;3.10;;;23.60;96.70;;;;;;4977900;28;20134;-71
2023/06/10 00:40:05;;;;;;;7.93;2.92;;;23.50;96.70;;;;;;4951837;28;20078;-70
2023/06/10 00:42:34;;;;;;;5.38;3.42;;;23.40;96.70;;;;;;4955297;28;20050;-70
2023/06/10 00:45:03;;;;;;;8.27;3.20;;;23.40;96.70;;;;;;4958563;28;20038;-70
2023/06/10 00:47:31;;;;;;;5.00;2.88;;;23.40;96.70;;;;;;4955856;28;20042;-70
2023/06/10 00:50:00;;;;;;;8.77;3.67;;;23.40;96.70;;;;;;4950243;28;20049;-70
2023/06/10 00:52:31;;;;;;;5.28;3.13;;;23.50;96.70;;;;;;4957068;28;20041;-69
2023/06/10 00:55:00;;;;;;;5.22;3.05;;;23.40;96.70;;;;;;4973338;28;20054;-70
2023/06/10 00:57:29;;;;;;;5.85;3.03;;;23.50;96.70;;;;;;4984645;28;20078;-70
2023/06/10 00:59:59;;;;;;;5.68;3.08;;;23.50;96.70;;;;;;4975599;28;20073;-70
2023/06/10 01:02:27;;;;;;;5.30;3.25;;;23.50;96.70;;;;;;4960368;28;20082;-69
2023/06/10 01:05:01;;;;;;;6.15;3.08;;;23.50;96.70;;;;;;4957222;28;20055;-69
2023/06/10 01:07:37;;;;;;;4.28;3.35;;;23.50;96.70;;;;;;4975655;28;20062;-69
2023/06/10 01:10:13;;;;;;;6.03;3.47;;;23.40;96.70;;;;;;4954059;28;20054;-70
2023/06/10 01:12:48;;;;;;;6.63;3.80;;;23.40;96.70;;;;;;4973174;28;20043;-69
2023/06/10 01:15:18;;;;;;;4.95;3.30;;;23.40;96.70;;;;;;4956334;28;20105;-69
2023/06/10 01:17:57;;;;;;;7.13;3.35;;;23.40;96.70;;;;;;4970570;28;20053;-70
2023/06/10 01:20:29;;;;;;;5.28;2.97;;;23.30;96.70;;;;;;4981844;28;20043;-69
2023/06/10 01:22:59;;;;;;;5.20;3.22;;;23.40;96.70;;;;;;4981336;28;20082;-69
2023/06/10 01:25:29;;;;;;;4.88;2.78;;;23.30;96.70;;;;;;4984454;28;20125;-70
2023/06/10 01:28:05;;;;;;;6.40;3.17;;;23.30;96.70;;;;;;4983589;28;20097;-69
2023/06/10 01:30:48;;;;;;;4.50;3.17;;;23.20;96.70;;;;;;4982664;28;21083;-70
2023/06/10 01:33:33;;;;;;;4.45;3.10;;;23.30;96.70;;;;;;4986438;28;20412;-70
2023/06/10 01:36:03;;;;;;;5.60;2.40;;;23.30;96.70;;;;;;4981705;28;20105;-69
2023/06/10 01:38:38;;;;;;;4.05;2.78;;;23.30;96.70;;;;;;4982800;28;20129;-69
2023/06/10 01:41:06;;;;;;;4.68;3.20;;;23.30;96.70;;;;;;4964616;28;20070;-69
2023/06/10 01:43:34;;;;;;;3.92;2.97;;;23.20;96.70;;;;;;4979972;28;20133;-70
2023/06/10 01:46:02;;;;;;;4.68;2.75;;;23.20;96.70;;;;;;4980544;28;20130;-69
2023/06/10 01:48:31;;;;;;;6.07;2.95;;;23.20;96.70;;;;;;4982014;28;20046;-69
2023/06/10 01:50:59;;;;;;;5.50;2.75;;;23.20;96.70;;;;;;4982376;28;20053;-69
2023/06/10 01:53:27;;;;;;;5.75;3.08;;;23.20;96.70;;;;;;4981215;28;20050;-69
2023/06/10 01:55:56;;;;;;;4.97;2.60;;;23.20;96.70;;;;;;4985205;28;20081;-69
2023/06/10 01:58:24;;;;;;;4.97;2.85;;;23.20;96.70;;;;;;4981528;28;20047;-69
2023/06/10 02:00:53;;;;;;;4.72;2.90;;;23.20;96.70;;;;;;4980504;28;20047;-69
2023/06/10 02:03:21;;;;;;;5.80;2.97;;;23.20;96.70;;;;;;4974130;28;20053;-70
2023/06/10 02:05:50;;;;;;;5.10;2.55;;;23.20;96.70;;;;;;4982132;28;20042;-69
2023/06/10 02:08:18;;;;;;;3.72;2.42;;;23.10;96.70;;;;;;4974099;28;20527;-70
2023/06/10 02:10:46;;;;;;;4.15;2.42;;;23.10;96.70;;;;;;4977823;28;20473;-69
2023/06/10 02:13:16;;;;;;;5.25;3.03;;;23.10;96.70;;;;;;4965023;28;20488;-69
2023/06/10 02:15:44;;;;;;;5.32;2.90;;;23.10;96.70;;;;;;4982429;28;20101;-69
2023/06/10 02:18:12;;;;;;;6.40;3.00;;;23.10;96.70;;;;;;4978350;28;20049;-69
2023/06/10 02:20:40;;;;;;;5.15;2.83;;;23.10;96.70;;;;;;4976943;28;20053;-70
2023/06/10 02:23:08;;;;;;;3.53;2.50;;;23.00;96.70;;;;;;4977578;28;20100;-70
2023/06/10 02:25:36;;;;;;;4.05;2.42;;;23.00;96.70;;;;;;4980525;28;20050;-69
2023/06/10 02:28:05;;;;;;;4.13;2.50;;;23.00;96.70;;;;;;4978556;28;20042;-69
2023/06/10 02:30:34;;;;;;;5.63;2.38;;;23.00;96.70;;;;;;4978458;28;20042;-69
2023/06/10 02:33:05;;;;;;;5.63;3.08;;;23.00;96.70;;;;;;4982500;28;20042;-69
2023/06/10 02:35:33;;;;;;;4.20;2.70;;;23.10;96.70;;;;;;4960723;28;20136;-70
2023/06/10 02:38:00;;;;;;;5.60;2.65;;;23.10;96.70;;;;;;4978192;28;20043;-69
2023/06/10 02:40:29;;;;;;;5.10;2.55;;;23.00;96.70;;;;;;4981231;28;20137;-69
2023/06/10 02:42:58;;;;;;;4.20;2.50;;;23.00;96.70;;;;;;4978245;28;20054;-70
2023/06/10 02:45:26;;;;;;;8.82;3.00;;;23.10;96.70;;;;;;4979111;28;20053;-69
2023/06/10 02:47:59;;;;;;;5.65;3.10;;;23.10;96.70;;;;;;4977819;28;20493;-70
2023/06/10 02:50:27;;;;;;;4.55;2.70;;;23.10;96.70;;;;;;4980566;28;20210;-69
2023/06/10 02:53:03;;;;;;;4.97;2.78;;;23.10;96.70;;;;;;4982385;28;20034;-69
2023/06/10 02:55:35;;;;;;;3.63;2.70;;;23.00;96.70;;;;;;4977062;28;20042;-69
2023/06/10 02:58:06;;;;;;;5.78;2.90;;;23.00;96.70;;;;;;4979473;28;20057;-69
2023/06/10 03:00:35;;;;;;;5.72;2.90;;;23.00;96.70;;;;;;4964890;28;20049;-69
2023/06/10 03:03:05;;;;;;;6.60;3.08;;;22.90;96.70;;;;;;4981808;28;20606;-69
2023/06/10 03:05:42;;;;;;;5.80;3.00;;;22.90;96.70;;;;;;4978696;28;20070;-70
2023/06/10 03:08:11;;;;;;;5.50;2.90;;;22.90;96.70;;;;;;4959455;28;20061;-70
2023/06/10 03:10:41;;;;;;;4.85;2.83;;;22.90;96.70;;;;;;4977506;28;20066;-69
2023/06/10 03:13:14;;;;;;;5.43;2.97;;;22.90;96.70;;;;;;4980865;28;20051;-70
2023/06/10 03:15:42;;;;;;;5.93;2.75;;;22.90;96.70;;;;;;4980544;28;20147;-69
2023/06/10 03:18:15;;;;;;;3.85;2.58;;;22.90;96.70;;;;;;4967512;28;20586;-70
2023/06/10 03:20:44;;;;;;;6.18;3.00;;;22.90;96.70;;;;;;4980425;28;20054;-69
2023/06/10 03:23:12;;;;;;;6.93;2.58;;;22.90;96.70;;;;;;4982232;28;20133;-70
2023/06/10 03:25:40;;;;;;;6.07;2.88;;;22.90;96.70;;;;;;4983033;28;20046;-70
2023/06/10 03:28:12;;;;;;;9.13;3.22;;;22.90;96.70;;;;;;4983582;28;20045;-70
2023/06/10 03:30:41;;;;;;;5.75;2.70;;;22.80;96.70;;;;;;4979323;28;20078;-69
2023/06/10 03:33:10;;;;;;;7.03;3.10;;;22.80;96.70;;;;;;4981540;28;20045;-69
2023/06/10 03:35:41;;;;;;;3.95;2.20;;;22.80;96.70;;;;;;4981736;28;20057;-69
2023/06/10 03:38:09;;;;;;;4.45;2.90;;;22.80;96.70;;;;;;4975383;28;20039;-70
2023/06/10 03:40:38;;;;;;;6.03;2.60;;;22.80;96.70;;;;;;4978389;28;20055;-69
2023/06/10 03:43:06;;;;;;;6.18;3.15;;;22.80;96.70;;;;;;4976813;28;20129;-69
2023/06/10 03:45:36;;;;;;;7.25;3.28;;;22.80;96.70;;;;;;4980621;28;20492;-70
2023/06/10 03:48:06;;;;;;;6.85;3.63;;;22.80;96.70;;;;;;4974116;28;20456;-69
2023/06/10 03:50:54;;;;;;;6.40;3.45;;;22.70;96.70;;;;;;4980015;28;20097;-70
2023/06/10 03:53:22;;;;;;;8.63;3.58;;;22.60;96.70;;;;;;4969285;28;20133;-70
2023/06/10 03:55:51;;;;;;;5.22;2.95;;;22.60;96.70;;;;;;4962039;28;20137;-70
2023/06/10 03:58:23;;;;;;;6.63;2.95;;;22.60;96.70;;;;;;4962787;28;20042;-70
2023/06/10 04:00:50;;;;;;;5.75;2.65;;;22.50;96.70;;;;;;4983140;28;20615;-69
2023/06/10 04:03:21;;;;;;;6.22;3.13;;;22.60;96.70;;;;;;4981405;28;20363;-70
2023/06/10 04:05:51;;;;;;;5.32;2.65;;;22.60;96.70;;;;;;4979806;28;20038;-69
2023/06/10 04:08:21;;;;;;;3.88;2.50;;;22.60;96.70;;;;;;4978043;28;20508;-70
2023/06/10 04:10:49;;;;;;;7.53;3.15;;;22.60;96.70;;;;;;4980086;28;20050;-69
2023/06/10 04:13:17;;;;;;;8.13;3.33;;;22.60;96.70;;;;;;4970949;28;20047;-69
2023/06/10 04:15:52;;;;;;;7.13;3.20;;;22.50;96.70;;;;;;4975610;28;20045;-70
2023/06/10 04:18:23;;;;;;;4.68;2.63;;;22.40;96.70;;;;;;4974755;28;20058;-69
2023/06/10 04:20:55;;;;;;;4.72;2.30;;;22.40;96.70;;;;;;4979210;28;20042;-69
2023/06/10 04:23:24;;;;;;;4.45;2.88;;;22.50;96.70;;;;;;4978214;28;20081;-70
2023/06/10 04:25:52;;;;;;;3.53;3.10;;;22.60;96.70;;;;;;4955350;28;20670;-69
2023/06/10 04:28:20;;;;;;;5.05;2.90;;;22.60;96.70;;;;;;4979524;28;20042;-70
2023/06/10 04:30:48;;;;;;;5.07;2.60;;;22.50;96.70;;;;;;4977204;28;20504;-70
2023/06/10 04:33:17;;;;;;;6.68;3.47;;;22.60;96.70;;;;;;4982566;28;20470;-70
2023/06/10 04:35:47;;;;;;;6.32;3.03;;;22.60;96.70;;;;;;4981012;28;20677;-70
2023/06/10 04:38:16;;;;;;;6.18;3.83;;;22.70;96.70;;;;;;4966403;28;20399;-70
2023/06/10 04:40:46;;;;;;;5.32;3.42;;;22.60;96.70;;;;;;4977737;28;20045;-69
2023/06/10 04:43:16;;;;;;;4.90;2.88;;;22.50;96.70;;;;;;4980152;28;20112;-70
2023/06/10 04:45:46;;;;;;;6.13;2.92;;;22.50;96.70;;;;;;4981607;28;20055;-69
2023/06/10 04:48:13;;;;;;;7.13;3.22;;;22.60;96.70;;;;;;4983381;28;20069;-69
2023/06/10 04:50:41;;;;;;;7.78;3.83;;;22.50;96.70;;;;;;4977356;28;20046;-69
2023/06/10 04:53:10;;;;;;;6.85;3.58;;;22.50;96.70;;;;;;4978608;28;20051;-69
2023/06/10 04:55:41;;;;;;;5.65;3.33;;;22.50;96.70;;;;;;4978625;28;20074;-70
2023/06/10 04:58:10;;;;;;;6.30;3.70;;;22.60;96.70;;;;;;4980784;28;20684;-69
2023/06/10 05:00:38;;;;;;;6.78;3.85;;;22.60;96.70;;;;;;4981670;28;20444;-70
2023/06/10 05:03:06;;;;;;;4.97;3.30;;;22.60;96.70;;;;;;4983704;28;20042;-70
2023/06/10 05:05:34;;;;;;;7.13;3.95;;;22.60;96.70;;;;;;4983318;28;20089;-70
2023/06/10 05:08:02;;;;;;;6.47;3.80;;;22.60;96.70;;;;;;4983577;28;20050;-70
2023/06/10 05:10:34;;;;;;;6.22;3.72;;;22.70;96.70;;;;;;4981818;28;20085;-70
2023/06/10 05:13:02;;;;;;;5.72;3.83;;;22.70;96.70;;;;;;4981660;28;20831;-72
2023/06/10 05:15:32;;;;;;;7.82;3.92;;;22.80;96.70;;;;;;4981171;28;20046;-70
2023/06/10 05:18:02;;;;;;;8.40;3.80;;;22.90;96.70;;;;;;4981782;28;20059;-71
2023/06/10 05:20:31;;;;;;;7.20;3.70;;;22.90;96.70;;;;;;4982856;28;20050;-70
2023/06/10 05:22:58;;;;;;;6.03;3.03;;;22.90;96.70;;;;;;4982910;28;20046;-70
2023/06/10 05:25:30;;;;;;;4.13;3.08;;;22.90;96.70;;;;;;4982974;28;20566;-70
2023/06/10 05:27:58;;;;;;;4.80;2.90;;;23.00;96.70;;;;;;4983842;28;20069;-70
2023/06/10 05:30:26;;;;;;;5.93;3.70;;;23.00;96.70;;;;;;4981341;28;20419;-70
2023/06/10 05:32:56;;;;;;;6.53;3.58;;;22.90;96.70;;;;;;4981760;28;20065;-69
2023/06/10 05:35:24;;;;;;;5.13;3.53;;;22.90;96.70;;;;;;4980528;28;20050;-70
2023/06/10 05:37:52;;;;;;;7.05;3.60;;;23.00;96.70;;;;;;4976616;28;20070;-70
2023/06/10 05:40:20;;;;;;;6.57;3.22;;;23.00;96.70;;;;;;4983172;28;20128;-70
2023/06/10 05:42:48;;;;;;;9.20;3.83;;;23.00;96.70;;;;;;4982842;28;20050;-70
2023/06/10 05:45:16;;;;;;;7.55;3.00;;;23.00;96.70;;;;;;4978157;28;20057;-70
2023/06/10 05:47:43;;;;;;;7.20;3.40;;;22.90;96.70;;;;;;4982581;28;20041;-70
2023/06/10 05:50:13;;;;;;;6.90;3.45;;;23.10;96.70;;;;;;4982197;28;20046;-70
2023/06/10 05:52:44;;;;;;;8.23;2.70;;;23.20;96.70;;;;;;4982986;28;20101;-70
2023/06/10 05:55:12;;;;;;;4.90;3.13;;;23.20;96.70;;;;;;4981981;28;20054;-70
2023/06/10 05:57:42;;;;;;;7.20;3.60;;;23.30;96.70;;;;;;4982654;28;20038;-70
2023/06/10 06:00:12;;;;;;;4.35;3.15;;;23.30;96.70;;;;;;4977613;28;20055;-70
2023/06/10 06:02:40;;;;;;;5.20;3.42;;;23.30;96.70;;;;;;4981995;28;20093;-71
2023/06/10 06:05:09;;;;;;;6.75;3.17;;;23.40;96.70;;;;;;4986007;28;20062;-70
2023/06/10 06:07:39;;;;;;;6.85;3.45;;;23.40;96.70;;;;;;4989367;28;20073;-70
2023/06/10 06:10:09;;;;;;;6.30;3.15;;;23.50;96.70;;;;;;4986173;28;20057;-70
2023/06/10 06:12:37;;;;;;;6.90;3.17;;;23.50;96.70;;;;;;4985508;28;20714;-71
2023/06/10 06:15:08;;;;;;;6.53;3.40;;;23.60;96.70;;;;;;4984186;28;20752;-70
2023/06/10 06:17:37;;;;;;;6.28;3.28;;;23.50;96.70;;;;;;4968403;28;20066;-70
2023/06/10 06:20:07;;;;;;;6.78;2.90;;;23.50;96.70;;;;;;4986159;28;20046;-70
2023/06/10 06:22:35;;;;;;;8.77;3.13;;;23.60;96.70;;;;;;4985679;28;20120;-71
2023/06/10 06:25:06;;;;;;;8.02;3.50;;;23.60;96.70;;;;;;4985382;28;20073;-70
2023/06/10 06:27:35;;;;;;;7.47;3.10;;;23.70;96.70;;;;;;4984774;28;20396;-70
2023/06/10 06:30:04;;;;;;;7.20;3.40;;;23.80;96.70;;;;;;4967794;28;20049;-70
2023/06/10 06:32:33;;;;;;;8.77;3.95;;;23.70;96.70;;;;;;4982751;28;20129;-70
2023/06/10 06:35:01;;;;;;;7.68;3.38;;;23.70;96.70;;;;;;4985634;28;20046;-70
2023/06/10 06:37:30;;;;;;;8.15;3.08;;;23.70;96.70;;;;;;4986121;28;20125;-71
2023/06/10 06:40:15;;;;;;;5.75;3.17;;;23.60;96.70;;;;;;4984756;28;20156;-70
2023/06/10 06:42:44;;;;;;;6.25;3.00;;;23.60;96.70;;;;;;4985028;28;20077;-71
2023/06/10 06:45:51;;;;;;;8.07;3.70;;;23.60;96.70;;;;;;4982655;28;20054;-70
2023/06/10 06:48:19;;;;;;;6.70;3.08;;;23.70;96.70;;;;;;4969567;28;20595;-71
2023/06/10 06:50:48;;;;;;;8.95;3.50;;;23.70;96.70;;;;;;4970762;28;20046;-70
2023/06/10 06:53:16;;;;;;;6.00;3.17;;;23.60;96.70;;;;;;4989090;28;20052;-70
2023/06/10 06:55:46;;;;;;;5.85;2.80;;;23.60;96.70;;;;;;5001853;28;20167;-70
2023/06/10 06:58:14;;;;;;;7.10;3.40;;;23.60;96.70;;;;;;4982489;28;20145;-70
2023/06/10 07:00:43;;;;;;;8.15;3.28;;;23.60;96.70;;;;;;4989197;28;20046;-70
2023/06/10 07:03:11;;;;;;;7.15;3.45;;;23.60;96.70;;;;;;4991346;28;20554;-70
2023/06/10 07:05:40;;;;;;;7.15;3.78;;;23.60;96.70;;;;;;4991293;28;20052;-70
2023/06/10 07:08:08;;;;;;;6.03;3.90;;;23.50;96.70;;;;;;4998144;28;20355;-70
2023/06/10 07:10:36;;;;;;;5.03;3.47;;;23.40;96.70;;;;;;5000499;28;20050;-70
2023/06/10 07:13:06;;;;;;;8.88;3.97;;;23.40;96.70;;;;;;4990238;28;20041;-70
2023/06/10 07:15:35;;;;;;;4.75;4.00;;;23.40;96.70;;;;;;4989664;28;20128;-70
2023/06/10 07:18:03;;;;;;;8.65;4.35;;;23.40;96.70;;;;;;4979386;28;20046;-70
2023/06/10 07:20:32;;;;;;;8.52;4.88;;;23.30;96.70;;;;;;4984465;28;20436;-70
2023/06/10 07:23:00;;;;;;;10.50;5.30;;;23.20;96.70;;;;;;4985128;28;20058;-70
2023/06/10 07:25:28;;;;;;;8.38;5.75;;;23.10;96.70;;;;;;4966519;28;20058;-70
2023/06/10 07:27:57;;;;;;;6.78;5.97;;;23.20;96.70;;;;;;4984303;28;20057;-70
2023/06/10 07:30:28;;;;;;;11.25;6.00;;;23.10;96.70;;;;;;4984528;28;20146;-70
2023/06/10 07:32:56;;;;;;;9.40;5.57;;;23.00;96.70;;;;;;4967373;28;20093;-71
2023/06/10 07:35:24;;;;;;;16.52;5.53;;;22.90;96.70;;;;;;4984914;28;20176;-71
2023/06/10 07:37:53;;;;;;;7.63;4.63;;;22.80;96.70;;;;;;4983836;28;20050;-71
2023/06/10 07:40:21;;;;;;;7.32;4.32;;;22.80;96.70;;;;;;4975966;28;20046;-71
2023/06/10 07:42:49;;;;;;;10.55;4.45;;;22.90;96.70;;;;;;4983828;28;20144;-71
2023/06/10 07:45:18;;;;;;;10.50;4.47;;;23.00;96.70;;;;;;4984031;28;20054;-70
2023/06/10 07:47:48;;;;;;;8.50;4.90;;;23.10;96.70;;;;;;4980439;28;20485;-71
2023/06/10 07:50:16;;;;;;;7.60;4.47;;;23.20;96.70;;;;;;4981486;28;20104;-70
2023/06/10 07:52:45;;;;;;;7.55;5.00;;;23.30;96.70;;;;;;4982421;28;20149;-70
2023/06/10 07:55:13;;;;;;;12.70;5.70;;;23.40;96.70;;;;;;4966361;28;20054;-70
2023/06/10 07:57:42;;;;;;;8.27;5.15;;;23.50;96.70;;;;;;4983832;28;20463;-70
2023/06/10 08:00:11;;;;;;;9.35;5.82;;;23.40;96.70;;;;;;4983764;28;20113;-70
2023/06/10 08:02:39;;;;;;;8.40;6.05;;;23.60;96.70;;;;;;4984465;28;20517;-70
2023/06/10 08:05:09;;;;;;;10.77;6.00;;;23.70;96.70;;;;;;4985696;28;20093;-70
2023/06/10 08:07:39;;;;;;;8.90;6.10;;;23.80;96.70;;;;;;4984310;28;20406;-70
2023/06/10 08:10:10;;;;;;;10.77;6.90;;;23.80;96.70;;;;;;4982153;28;20035;-70
2023/06/10 08:12:38;;;;;;;10.93;6.18;;;23.90;96.70;;;;;;4983490;28;20509;-70
2023/06/10 08:15:08;;;;;;;9.20;5.80;;;23.90;96.70;;;;;;4983409;28;20042;-70
2023/06/10 08:17:37;;;;;;;11.20;6.22;;;24.00;96.70;;;;;;4982791;28;20824;-70
2023/06/10 08:20:08;;;;;;;10.15;6.43;;;23.90;96.70;;;;;;4983827;28;20062;-70
2023/06/10 08:22:38;;;;;;;8.30;5.95;;;24.00;96.70;;;;;;4983233;28;20070;-70
2023/06/10 08:25:07;;;;;;;9.02;5.57;;;24.00;96.70;;;;;;4983584;28;20078;-70
2023/06/10 08:27:36;;;;;;;10.65;6.38;;;24.20;96.70;;;;;;4979312;28;20567;-70
2023/06/10 08:30:05;;;;;;;8.93;6.22;;;24.30;96.70;;;;;;4978294;28;20073;-69
2023/06/10 08:32:34;;;;;;;10.95;6.25;;;24.40;96.70;;;;;;4974478;28;21043;-70
2023/06/10 08:35:03;;;;;;;10.13;5.88;;;24.50;96.70;;;;;;4983620;28;20416;-70
2023/06/10 08:37:33;;;;;;;9.30;5.43;;;24.50;96.70;;;;;;4966281;28;20074;-70
2023/06/10 08:40:02;;;;;;;10.13;5.80;;;24.50;96.70;;;;;;4965707;28;20093;-70
2023/06/10 08:42:39;;;;;;;9.75;4.97;;;24.50;96.70;;;;;;4982365;28;20100;-70
2023/06/10 08:45:09;;;;;;;8.40;5.15;;;24.40;96.70;;;;;;4983310;28;20050;-70
2023/06/10 08:47:42;;;;;;;8.60;4.88;;;24.50;96.70;;;;;;4984195;28;20069;-69
2023/06/10 08:50:11;;;;;;;7.97;4.20;;;24.70;96.70;;;;;;4982366;28;20050;-70
2023/06/10 08:52:44;;;;;;;8.73;4.50;;;24.80;96.70;;;;;;4964378;28;20041;-70
2023/06/10 08:55:19;;;;;;;8.85;5.70;;;24.90;96.70;;;;;;4957511;28;20058;-70
2023/06/10 08:57:48;;;;;;;7.07;4.72;;;24.90;96.70;;;;;;4983065;28;20468;-70
2023/06/10 09:00:17;;;;;;;9.23;4.88;;;25.00;96.70;;;;;;4981948;28;20038;-71
2023/06/10 09:02:46;;;;;;;7.80;4.60;;;25.20;96.70;;;;;;4983775;28;20137;-70
2023/06/10 09:05:15;;;;;;;7.47;4.13;;;25.20;96.70;;;;;;4980625;28;20057;-70
2023/06/10 09:07:47;;;;;;;5.90;4.35;;;25.40;96.70;;;;;;4981220;28;20054;-70
2023/06/10 09:10:16;;;;;;;6.95;4.30;;;25.50;96.70;;;;;;4982641;28;20046;-70
2023/06/10 09:12:44;;;;;;;7.07;4.60;;;25.60;96.70;;;;;;4983064;28;20046;-70
2023/06/10 09:15:14;;;;;;;7.72;4.13;;;25.60;96.70;;;;;;4982605;28;20074;-70
2023/06/10 09:17:42;;;;;;;7.35;4.07;;;25.50;96.70;;;;;;4982782;28;20085;-70
2023/06/10 09:20:12;;;;;;;6.13;3.75;;;25.30;96.70;;;;;;4982747;28;20053;-69
2023/06/10 09:22:42;;;;;;;6.65;3.60;;;25.40;96.70;;;;;;4990796;28;20377;-70
2023/06/10 09:25:13;;;;;;;5.05;3.28;;;25.60;96.70;;;;;;4982745;28;20058;-69
2023/06/10 09:27:53;;;;;;;7.63;3.45;;;25.70;96.70;;;;;;4978347;28;20047;-70
2023/06/10 09:30:28;;;;;;;8.38;3.75;;;25.80;96.70;;;;;;4980481;28;20047;-70
2023/06/10 09:32:58;;;;;;;5.35;3.03;;;25.70;96.70;;;;;;4982085;28;20623;-70
2023/06/10 09:35:28;;;;;;;7.03;3.17;;;25.70;96.70;;;;;;4983129;28;20120;-71
2023/06/10 09:37:58;;;;;;;5.90;3.05;;;25.80;96.70;;;;;;4982296;28;20049;-71
2023/06/10 09:40:28;;;;;;;6.43;3.25;;;25.80;96.70;;;;;;4985525;28;20137;-71
2023/06/10 09:42:58;;;;;;;7.40;3.13;;;25.80;96.70;;;;;;4986049;28;20580;-71
2023/06/10 09:45:31;;;;;;;4.35;2.90;;;25.80;96.70;;;;;;4986449;28;20133;-71
2023/06/10 09:48:00;;;;;;;5.13;2.90;;;25.90;96.70;;;;;;4987568;28;20046;-70
2023/06/10 09:50:34;;;;;;;5.45;2.67;;;26.00;96.70;;;;;;4986651;28;20051;-70
2023/06/10 09:53:06;;;;;;;6.85;3.25;;;26.20;96.70;;;;;;4984300;28;20054;-70
2023/06/10 09:55:37;;;;;;;5.55;2.92;;;26.30;96.70;;;;;;4976713;28;20764;-70
2023/06/10 09:58:06;;;;;;;7.82;3.10;;;26.40;96.70;;;;;;4982089;28;20062;-70
2023/06/10 10:00:34;;;;;;;6.43;2.83;;;26.40;96.70;;;;;;4981618;28;20053;-70
2023/06/10 10:03:03;;;;;;;7.93;3.25;;;26.30;96.70;;;;;;4986605;28;20081;-70
2023/06/10 10:05:31;;;;;;;5.43;3.20;;;26.50;96.70;;;;;;4985290;28;20053;-70
2023/06/10 10:07:59;;;;;;;4.20;3.00;;;26.40;96.70;;;;;;4985818;28;20590;-70
2023/06/10 10:10:28;;;;;;;5.63;3.00;;;26.30;96.70;;;;;;4984532;28;20054;-70
2023/06/10 10:12:58;;;;;;;6.65;3.10;;;26.50;96.70;;;;;;4988667;28;20105;-70
2023/06/10 10:15:31;;;;;;;5.75;2.70;;;26.70;96.70;;;;;;4984668;28;20053;-70
2023/06/10 10:18:06;;;;;;;6.57;3.13;;;27.10;96.70;;;;;;4981446;28;20086;-70
2023/06/10 10:20:41;;;;;;;4.68;3.15;;;27.20;96.70;;;;;;4978582;28;20051;-70
2023/06/10 10:23:13;;;;;;;6.65;2.90;;;27.20;96.70;;;;;;4968461;28;20061;-70
2023/06/10 10:25:43;;;;;;;5.03;3.28;;;27.30;96.70;;;;;;4985838;28;20452;-70
2023/06/10 10:28:15;;;;;;;5.88;3.60;;;27.30;96.70;;;;;;4985154;28;20104;-70
2023/06/10 10:30:47;;;;;;;5.10;3.42;;;27.00;96.70;;;;;;4983032;28;20424;-70
2023/06/10 10:33:18;;;;;;;5.65;3.35;;;26.90;96.70;;;;;;4986418;28;20121;-70
2023/06/10 10:35:47;;;;;;;5.25;3.05;;;27.10;96.70;;;;;;4977908;28;20054;-70
2023/06/10 10:38:16;;;;;;;6.88;3.35;;;27.00;96.70;;;;;;4986988;28;20117;-70
2023/06/10 10:40:45;;;;;;;6.22;2.80;;;26.90;96.70;;;;;;4984897;28;20081;-70
2023/06/10 10:43:15;;;;;;;6.95;2.80;;;27.00;96.70;;;;;;4985660;28;20034;-70
2023/06/10 10:45:46;;;;;;;6.00;2.60;;;27.10;96.70;;;;;;4984259;28;20093;-70
2023/06/10 10:48:15;;;;;;;6.95;2.88;;;27.00;96.70;;;;;;4986034;28;20070;-70
2023/06/10 10:50:43;;;;;;;4.18;2.88;;;26.90;96.70;;;;;;4983975;28;20412;-70
2023/06/10 10:53:11;;;;;;;6.78;2.55;;;26.80;96.70;;;;;;4984364;28;20077;-70
2023/06/10 10:55:40;;;;;;;5.60;2.72;;;26.70;96.70;;;;;;4985152;28;20046;-70
2023/06/10 10:58:13;;;;;;;4.57;2.55;;;26.60;96.70;;;;;;4983800;28;20050;-70
2023/06/10 11:00:45;;;;;;;6.40;2.95;;;26.60;96.70;;;;;;4980326;28;20538;-70
2023/06/10 11:03:19;;;;;;;7.05;2.38;;;26.50;96.70;;;;;;4983250;28;20173;-70
2023/06/10 11:05:48;;;;;;;5.43;2.88;;;26.30;96.70;;;;;;4983791;28;20072;-70
2023/06/10 11:08:47;;;;;;;8.93;2.50;;;26.30;96.70;;;;;;4985326;28;20706;-69
2023/06/10 11:11:20;;;;;;;7.00;2.72;;;26.20;96.70;;;;;;4984597;28;20100;-69
2023/06/10 11:14:25;;;;;;;5.45;2.40;;;26.00;96.70;;;;;;4988585;28;20073;-70
2023/06/10 11:16:57;;;;;;;4.80;2.33;;;25.60;96.70;;;;;;4944810;28;20084;-70
2023/06/10 11:19:36;;;;;;;4.78;2.40;;;25.40;96.70;;;;;;4984048;28;20057;-69
2023/06/10 11:22:06;;;;;;;5.65;2.55;;;25.40;96.70;;;;;;4985047;28;20056;-69
2023/06/10 11:24:35;;;;;;;4.78;2.78;;;25.40;96.70;;;;;;4981678;28;20092;-70
2023/06/10 11:27:17;;;;;;;7.47;2.78;;;25.30;96.70;;;;;;4983974;28;20666;-69
2023/06/10 11:30:22;;;;;;;7.03;3.40;;;25.00;96.70;;;;;;4977222;28;20101;-70
2023/06/10 11:32:52;;;;;;;6.13;2.95;;;24.90;96.70;;;;;;4984757;28;20068;-70
2023/06/10 11:35:24;;;;;;;5.28;2.75;;;24.70;96.70;;;;;;4975937;28;20101;-70
2023/06/10 11:37:52;;;;;;;8.93;2.90;;;24.60;96.70;;;;;;4984827;28;20621;-70
2023/06/10 11:40:21;;;;;;;6.85;2.72;;;24.50;96.70;;;;;;4979871;28;20489;-70
2023/06/10 11:42:49;;;;;;;6.25;3.05;;;24.20;96.70;;;;;;4981369;28;20050;-69
2023/06/10 11:45:17;;;;;;;6.40;3.08;;;24.00;96.70;;;;;;4982992;28;20053;-69
2023/06/10 11:47:58;;;;;;;8.70;2.67;;;23.80;96.70;;;;;;4985113;28;20484;-70
2023/06/10 11:50:30;;;;;;;6.70;2.85;;;23.40;96.70;;;;;;4984995;28;20046;-69
2023/06/10 11:52:58;;;;;;;9.98;3.45;;;23.20;96.70;;;;;;4984276;28;20065;-69
2023/06/10 11:55:39;;;;;;;7.07;2.75;;;23.00;96.70;;;;;;4983908;28;20053;-70
2023/06/10 11:58:13;;;;;;;9.20;3.63;;;22.80;96.70;;;;;;4977395;28;20141;-70
2023/06/10 12:00:45;;;;;;;5.78;3.00;;;22.60;96.70;;;;;;4983792;28;20137;-70
2023/06/10 12:03:15;;;;;;;5.95;3.10;;;22.60;96.70;;;;;;4985831;28;20046;-70
2023/06/10 12:05:58;;;;;;;7.10;3.47;;;22.50;96.70;;;;;;4966256;28;20136;-70
2023/06/10 12:08:29;;;;;;;6.07;3.65;;;22.40;96.70;;;;;;4983135;28;20050;-70
2023/06/10 12:10:58;;;;;;;6.57;3.85;;;22.30;96.70;;;;;;4984223;28;20052;-70
2023/06/10 12:25:03;;;;;;;6.60;3.40;;;22.40;96.70;;;;;;5066347;27;1607706;-69
2023/06/10 12:27:32;;;;;;;8.77;3.15;;;22.60;96.70;;;;;;5086087;27;20768;-70
2023/06/10 12:30:02;;;;;;;6.00;3.63;;;22.70;96.70;;;;;;5081409;28;20044;-69
2023/06/10 12:32:41;;;;;;;6.43;2.95;;;22.70;96.70;;;;;;5092759;28;20046;-69
2023/06/10 12:35:10;;;;;;;6.65;3.35;;;22.80;96.70;;;;;;5092509;28;20707;-69
2023/06/10 12:37:38;;;;;;;9.00;3.70;;;22.90;96.70;;;;;;5089056;28;20046;-70
2023/06/10 12:40:12;;;;;;;6.40;3.50;;;23.00;96.70;;;;;;5098835;28;20040;-70
2023/06/10 12:42:41;;;;;;;5.28;2.90;;;23.10;96.70;;;;;;5089196;28;20043;-70
2023/06/10 12:45:11;;;;;;;6.25;3.00;;;23.20;96.70;;;;;;5082621;28;20074;-69
2023/06/10 12:47:41;;;;;;;6.40;2.88;;;23.30;96.70;;;;;;5096730;28;20043;-69
2023/06/10 12:50:11;;;;;;;5.82;2.85;;;23.40;96.70;;;;;;5095202;28;20089;-69
2023/06/10 12:52:40;;;;;;;7.65;2.90;;;23.50;96.70;;;;;;5091889;27;20048;-68
2023/06/10 12:55:10;;;;;;;4.18;2.70;;;23.70;96.70;;;;;;5090516;28;20051;-69
2023/06/10 12:57:48;;;;;;;6.05;3.22;;;23.80;96.70;;;;;;5108992;28;20056;-70
2023/06/10 13:00:18;;;;;;;3.88;2.10;;;23.70;96.70;;;;;;5093083;28;20548;-69
2023/06/10 13:02:46;;;;;;;4.50;2.42;;;23.70;96.70;;;;;;5095973;28;20093;-70
2023/06/10 13:05:14;;;;;;;4.07;2.35;;;23.70;96.70;;;;;;5080795;28;20094;-70
2023/06/10 13:07:44;;;;;;;5.00;2.58;;;23.70;96.70;;;;;;5081880;28;20040;-69
2023/06/10 13:10:14;;;;;;;5.00;2.60;;;23.90;96.70;;;;;;5091436;28;20090;-69
2023/06/10 13:12:42;;;;;;;5.72;2.42;;;24.00;96.70;;;;;;5092774;28;20048;-69